Avisos AEMET Campiña SevillanaSin Avisos+ INFO
Sevilla, Andalucía, España
Lingua: it English Français Deutsch Italiano Português Español
 

Nearby METAR Reports

 

LEZL - Sevilla, Spain
Distance from station: ENE 8km
Dati ricevuti: 08/12/2023 20:00
Sereno
Sereno
 Vento da O
Vento: O 7 km/h
Temperatura: 13°C
P.to Rugiada: 11°C
Umidità: 88%
Barometro: 1026 hPa
Summary: Sereno
Visibility: greater than 10 km
2023/12/08 19:00 LEZL 081900Z 28004KT CAVOK 13/11 Q1026 NOSIG
LEMO - Morón, Spain
Distance from station: SE 43km
Dati ricevuti: 08/12/2023 20:00
Sereno
Sereno
 Vento da SSO
Vento: SSO 6 km/h
Temperatura: 12°C
P.to Rugiada: 11°C
Umidità: 94%
Barometro: 1026 hPa
Summary: Sereno
Visibility: greater than 10 km
2023/12/08 19:00 LEMO 081900Z 21003KT 170V250 CAVOK 12/11 Q1026 NOSIG
LEJR - Jeréz, Spain
Distance from station: S 71km
Dati ricevuti: 08/12/2023 20:00
Sereno
Sereno
 Vento da NO
Vento: NO 6 km/h
Temperatura: 14°C
P.to Rugiada: 13°C
Umidità: 94%
Barometro: 1026 hPa
Summary: Sereno
Visibility: greater than 10 km
2023/12/08 19:00 LEJR 081900Z 32003KT CAVOK 14/13 Q1026
 
LERT - Rota, Spain
Distance from station: SSO 89km
Dati ricevuti: 08/12/2023 20:00
Sereno
Sereno
 Vento da N
Vento: N 4 km/h
Temperatura: 14°C
P.to Rugiada: 12°C
Umidità: 88%
Barometro: 1026 hPa
Summary: Sereno
Visibility: greater than 10 km
2023/12/08 19:00 LERT 081900Z 36002KT CAVOK 14/12 Q1026 NOSIG
LEMG - Málaga, Spain
Distance from station: ESE 157km
Dati ricevuti: 08/12/2023 20:00
Few Clouds
Few Clouds
 Vento da ONO
Vento: ONO 9 km/h
Temperatura: 15°C
P.to Rugiada: 7°C
Umidità: 59%
Barometro: 1025 hPa
Clouds: Few Clouds
Visibility: 10 km
Cloud details: Few Clouds 1219 m
2023/12/08 19:00 LEMG 081900Z 29005KT 9999 FEW040 15/07 Q1025 NOSIG
LEBA - Córdoba, Spain
Distance from station: ENE 115km
Dati ricevuti: 08/12/2023 20:00
Sereno
Sereno
 Vento da O
Vento: O 9 km/h
Temperatura: 10°C
Temperatura Vento: 9°C
P.to Rugiada: 9°C
Umidità: 94%
Barometro: 1025 hPa
Summary: Sereno
Visibility: greater than 10 km
2023/12/08 19:00 LEBA 081900Z 26005KT CAVOK 10/09 Q1025
 
LEGR - Granada, Spain
Distance from station: E 198km
Dati ricevuti: 08/12/2023 20:00
Few Clouds
Few Clouds
 Vento da NO
Vento: NO 13 km/h
Temperatura: 11°C
P.to Rugiada: 7°C
Umidità: 77%
Barometro: 1025 hPa
Clouds: Few Clouds
Visibility: 10 km
Cloud details: Few Clouds 1067 m
2023/12/08 19:00 LEGR 081900Z 32007KT 290V350 9999 FEW035 11/07 Q1025
LEAM - Almería, Spain
Distance from station: E 326km
Dati ricevuti: 08/12/2023 20:00
Sereno
Sereno
 Vento da NO
Vento: NO 17 km/h
Temperatura: 19°C
P.to Rugiada: 1°C
Umidità: 30%
Barometro: 1020 hPa
Summary: Sereno
Visibility: greater than 10 km
2023/12/08 19:00 LEAM 081900Z 31009KT CAVOK 19/01 Q1020
LEMD - Madrid/Barajas, Spain
Distance from station: NNE 402km
Dati ricevuti: 08/12/2023 20:00
Sereno
Sereno
 Vento da O
Vento: O 17 km/h
Temperatura: 9°C
Temperatura Vento: 7°C
P.to Rugiada: 2°C
Umidità: 62%
Barometro: 1023 hPa
Summary: Sereno
Visibility: greater than 10 km
2023/12/08 19:00 LEMD 081900Z 27009KT CAVOK 09/02 Q1023 NOSIG
 
LEVD - Valladolid, Spain
Distance from station: N 492km
Dati ricevuti: 08/12/2023 20:00
Few Clouds
Few Clouds
 Vento da OSO
Vento: OSO 13 km/h
Temperatura: 6°C
Temperatura Vento: 3°C
P.to Rugiada: 5°C
Umidità: 93%
Barometro: 1023 hPa
Clouds: Few Clouds
Visibility: 10 km
Cloud details: Few Clouds 610 m
2023/12/08 19:00 LEVD 081900Z 25007KT 9999 FEW020 06/05 Q1023
LEBL - Barcelona, Spain
Distance from station: NE 816km
Dati ricevuti: 08/12/2023 20:00
Few Clouds
Few Clouds
 Vento da N
Vento: N 4 km/h
Temperatura: 12°C
P.to Rugiada: 6°C
Umidità: 67%
Barometro: 1016 hPa
Clouds: Few Clouds
Visibility: 10 km
Cloud details: Few Clouds 1067 m
2023/12/08 19:00 LEBL 081900Z 36002KT 9999 FEW035 12/06 Q1016 NOSIG
LEVC - Valencia, Spain
Distance from station: ENE 535km
Dati ricevuti: 08/12/2023 20:00
Sereno
Sereno
 Vento da ONO
Vento: ONO 19 km/h
Temperatura: 15°C
P.to Rugiada: 1°C
Umidità: 39%
Barometro: 1019 hPa
Summary: Sereno
Visibility: greater than 10 km
2023/12/08 19:00 LEVC 081900Z 30010KT 260V340 CAVOK 15/01 Q1019 NOSIG